Terminal Aerodrome Forecast
Issued by NWS St Louis, MO

Home | Current Version | Previous Version | Text Only | Print | Product List | Glossary On
Versions: 1 2 3 4 5 6 7 8 9 10 11 12 13 14 15 16 17 18
000
FTUS43 KLSX 261700 AAB
TAFCOU
TAF AMD
KCOU 261710Z 2617/2712 23008KT P6SM OVC006
     FM261800 27010KT P6SM VCSH OVC012
     FM262300 31013KT P6SM OVC025=

USA.gov is the U.S. government's official web portal to all federal, state and local government web resources and services.